createdAt,value
2019-05-21T00:00:50.486Z,12.70
2019-05-21T00:03:19.023Z,16.40
2019-05-21T00:05:47.531Z,15.00
2019-05-21T00:08:15.991Z,18.15
2019-05-21T00:10:44.499Z,19.92
2019-05-21T00:13:12.982Z,18.77
2019-05-21T00:15:41.490Z,14.40
2019-05-21T00:18:10.031Z,13.38
2019-05-21T00:20:38.500Z,14.73
2019-05-21T00:23:07.014Z,17.82
2019-05-21T00:25:35.562Z,22.22
2019-05-21T00:28:27.495Z,19.23
2019-05-21T00:31:32.505Z,22.62
2019-05-21T00:34:44.020Z,17.27
2019-05-21T00:37:44.062Z,14.40
2019-05-21T00:40:48.966Z,16.80
2019-05-21T00:43:19.579Z,16.42
2019-05-21T00:45:48.038Z,13.85
2019-05-21T00:48:16.546Z,15.38
2019-05-21T00:50:45.029Z,11.50
2019-05-21T00:53:13.518Z,12.85
2019-05-21T00:55:42.053Z,14.27
2019-05-21T00:58:10.502Z,11.78
2019-05-21T01:00:39.173Z,15.05
2019-05-21T01:03:07.643Z,11.90
2019-05-21T01:05:36.202Z,10.48
2019-05-21T01:08:05.029Z,11.05
2019-05-21T01:10:33.597Z,13.88
2019-05-21T01:13:02.072Z,15.57
2019-05-21T01:15:30.559Z,15.48
2019-05-21T01:17:59.034Z,12.33
2019-05-21T01:20:27.539Z,13.15
2019-05-21T01:22:56.182Z,13.18
2019-05-21T01:25:24.756Z,12.25
2019-05-21T01:27:53.230Z,9.90
2019-05-21T01:30:21.713Z,12.37
2019-05-21T01:32:50.208Z,12.15
2019-05-21T01:35:18.729Z,13.43
2019-05-21T01:37:47.207Z,12.98
2019-05-21T01:40:15.712Z,13.43
2019-05-21T01:42:44.182Z,35.58
2019-05-21T01:45:13.053Z,29.02
2019-05-21T01:47:41.527Z,14.40
2019-05-21T01:50:10.075Z,12.65
2019-05-21T01:52:38.578Z,14.40
2019-05-21T01:55:07.227Z,12.47
2019-05-21T01:57:35.705Z,13.98
2019-05-21T02:00:06.968Z,14.28
2019-05-21T02:02:35.470Z,13.32
2019-05-21T02:05:06.426Z,14.00
2019-05-21T02:07:34.934Z,14.60
2019-05-21T02:10:04.859Z,14.30
2019-05-21T02:12:33.431Z,16.07
2019-05-21T02:15:01.909Z,16.37
2019-05-21T02:17:30.461Z,15.63
2019-05-21T02:19:58.937Z,16.25
2019-05-21T02:22:27.501Z,16.25
2019-05-21T02:24:55.978Z,15.48
2019-05-21T02:27:24.449Z,15.10
2019-05-21T02:29:52.947Z,15.65
2019-05-21T02:32:21.419Z,15.85
2019-05-21T02:34:49.973Z,15.43
2019-05-21T02:37:18.442Z,16.20
2019-05-21T02:39:46.924Z,15.23
2019-05-21T02:42:15.399Z,16.55
2019-05-21T02:44:43.970Z,17.00
2019-05-21T02:47:12.518Z,16.67
2019-05-21T02:49:40.989Z,16.83
2019-05-21T02:52:09.543Z,16.02
2019-05-21T02:54:41.367Z,16.02
2019-05-21T02:57:08.308Z,18.82
2019-05-21T02:59:37.184Z,18.00
2019-05-21T03:02:07.327Z,19.45
2019-05-21T03:04:35.805Z,20.92
2019-05-21T03:07:20.069Z,23.12
2019-05-21T03:09:49.513Z,21.80
2019-05-21T03:12:19.016Z,21.17
2019-05-21T03:14:47.838Z,23.00
2019-05-21T03:17:16.254Z,21.93
2019-05-21T03:19:44.761Z,21.52
2019-05-21T03:22:13.310Z,22.30
2019-05-21T03:24:41.791Z,21.95
2019-05-21T03:27:10.325Z,22.85
2019-05-21T03:29:38.828Z,23.27
2019-05-21T03:32:07.363Z,21.90
2019-05-21T03:34:35.885Z,24.27
2019-05-21T03:37:04.993Z,23.98
2019-05-21T03:39:33.463Z,21.42
2019-05-21T03:42:02.275Z,29.13
2019-05-21T03:44:30.822Z,32.53
2019-05-21T03:46:59.348Z,34.67
2019-05-21T03:49:27.836Z,34.50
2019-05-21T03:51:56.312Z,35.23
2019-05-21T03:54:24.812Z,32.10
2019-05-21T03:56:53.279Z,25.72
2019-05-21T03:59:21.837Z,25.70
2019-05-21T04:01:50.383Z,23.27
2019-05-21T04:04:18.902Z,25.65
2019-05-21T04:06:51.979Z,25.08
2019-05-21T04:09:17.592Z,25.52
2019-05-21T04:11:46.093Z,28.07
2019-05-21T04:14:16.186Z,29.60
2019-05-21T04:16:49.450Z,31.20
2019-05-21T04:19:19.569Z,32.20
2019-05-21T04:21:48.095Z,31.20
2019-05-21T04:24:16.571Z,30.90
2019-05-21T04:26:45.046Z,29.12
2019-05-21T04:29:13.555Z,24.85
2019-05-21T04:31:42.032Z,26.13
2019-05-21T04:34:10.541Z,18.60
2019-05-21T04:36:39.036Z,20.03
2019-05-21T04:39:07.680Z,25.60
2019-05-21T04:41:36.193Z,22.27
2019-05-21T04:44:05.056Z,19.95
2019-05-21T04:46:33.595Z,20.85
2019-05-21T04:49:02.080Z,26.23
2019-05-21T04:51:30.586Z,26.15
2019-05-21T04:53:59.088Z,28.60
2019-05-21T04:56:27.579Z,22.82
2019-05-21T04:58:56.083Z,26.35
2019-05-21T05:01:24.555Z,23.15
2019-05-21T05:03:53.062Z,22.83
2019-05-21T05:06:21.548Z,25.73
2019-05-21T05:08:50.034Z,33.63
2019-05-21T05:11:18.541Z,45.10
2019-05-21T05:13:47.046Z,37.65
2019-05-21T05:16:15.495Z,36.08
2019-05-21T05:18:43.971Z,23.97
2019-05-21T05:21:12.460Z,25.20
2019-05-21T05:23:40.934Z,25.10
2019-05-21T05:26:09.441Z,25.32
2019-05-21T05:28:37.966Z,20.50
2019-05-21T05:31:06.450Z,27.20
2019-05-21T05:33:34.934Z,34.27
2019-05-21T05:36:03.416Z,35.28
2019-05-21T05:38:31.913Z,23.25
2019-05-21T05:41:00.384Z,18.23
2019-05-21T05:43:28.892Z,15.35
2019-05-21T05:45:57.434Z,7.90
2019-05-21T05:48:26.615Z,7.05
2019-05-21T05:50:59.135Z,7.60
2019-05-21T05:53:27.619Z,9.13
2019-05-21T05:55:56.095Z,11.53
2019-05-21T05:58:24.777Z,8.35
2019-05-21T06:00:53.290Z,13.93
2019-05-21T06:03:21.750Z,21.00
2019-05-21T06:05:50.256Z,17.12
2019-05-21T06:08:18.744Z,7.40
2019-05-21T06:10:47.266Z,14.28
2019-05-21T06:13:15.767Z,6.67
2019-05-21T06:15:44.284Z,27.17
2019-05-21T06:18:12.768Z,15.70
2019-05-21T06:20:41.238Z,5.78
2019-05-21T06:23:09.810Z,6.80
2019-05-21T06:25:38.344Z,10.10
2019-05-21T06:28:06.930Z,26.77
2019-05-21T06:30:35.396Z,34.78
2019-05-21T06:33:03.960Z,14.43
2019-05-21T06:35:32.451Z,8.03
2019-05-21T06:38:16.734Z,10.10
2019-05-21T06:40:31.181Z,8.95
2019-05-21T06:42:59.666Z,5.37
2019-05-21T06:45:28.354Z,5.97
2019-05-21T06:47:56.855Z,10.25
2019-05-21T06:50:25.341Z,7.83
2019-05-21T06:52:53.823Z,7.15
2019-05-21T06:55:22.325Z,4.55
2019-05-21T06:57:50.794Z,6.47
2019-05-21T07:00:19.566Z,6.58
2019-05-21T07:02:48.091Z,4.70
2019-05-21T07:05:16.576Z,2.17
2019-05-21T07:07:45.067Z,3.15
2019-05-21T07:10:14.273Z,4.60
2019-05-21T07:12:42.762Z,3.90
2019-05-21T07:15:11.409Z,4.10
2019-05-21T07:17:39.859Z,6.87
2019-05-21T07:20:09.696Z,5.28
2019-05-21T07:22:38.143Z,4.72
2019-05-21T07:25:07.077Z,4.05
2019-05-21T07:27:35.663Z,25.00
2019-05-21T07:30:07.307Z,6.80
2019-05-21T07:32:35.831Z,7.17
2019-05-21T07:35:06.122Z,4.87
2019-05-21T07:37:34.605Z,4.20
2019-05-21T07:40:03.094Z,6.92
2019-05-21T07:42:31.570Z,5.78
2019-05-21T07:45:00.039Z,5.28
2019-05-21T07:47:28.582Z,7.50
2019-05-21T07:49:57.052Z,5.30
2019-05-21T07:52:25.534Z,5.70
2019-05-21T07:54:54.012Z,7.30
2019-05-21T07:57:22.494Z,2.50
2019-05-21T07:59:50.968Z,2.75
2019-05-21T08:02:19.476Z,4.85
2019-05-21T08:04:48.064Z,2.95
2019-05-21T08:07:16.571Z,6.17
2019-05-21T08:09:45.038Z,2.87
2019-05-21T08:12:35.442Z,3.00
2019-05-21T08:14:43.754Z,5.03
2019-05-21T08:17:12.223Z,17.02
2019-05-21T08:19:40.723Z,4.92
2019-05-21T08:22:09.190Z,3.00
2019-05-21T08:24:37.690Z,5.45
2019-05-21T08:27:06.228Z,9.80
2019-05-21T08:29:34.722Z,3.35
2019-05-21T08:32:03.270Z,4.20
2019-05-21T08:34:31.766Z,19.42
2019-05-21T08:37:00.265Z,4.15
2019-05-21T08:39:29.450Z,8.50
2019-05-21T08:41:58.101Z,3.67
2019-05-21T08:44:26.611Z,4.37
2019-05-21T08:46:57.390Z,2.98
2019-05-21T08:49:25.885Z,5.70
2019-05-21T08:51:54.351Z,9.53
2019-05-21T08:54:40.716Z,2.72
2019-05-21T08:57:09.256Z,4.08
2019-05-21T08:59:37.766Z,3.42
2019-05-21T09:02:06.223Z,6.55
2019-05-21T09:04:45.830Z,3.08
2019-05-21T09:07:05.260Z,3.90
2019-05-21T09:09:49.445Z,3.25
2019-05-21T09:12:04.274Z,5.15
2019-05-21T09:14:33.851Z,4.87
2019-05-21T09:17:02.319Z,7.80
2019-05-21T09:19:30.852Z,4.58
2019-05-21T09:21:59.326Z,5.40
2019-05-21T09:24:27.796Z,2.95
2019-05-21T09:26:56.288Z,2.80
2019-05-21T09:29:24.766Z,4.70
2019-05-21T09:31:53.236Z,3.35
2019-05-21T09:34:21.707Z,17.57
2019-05-21T09:36:50.282Z,2.83
2019-05-21T09:39:18.746Z,3.83
2019-05-21T09:41:47.229Z,1.70
2019-05-21T09:44:15.715Z,5.33
2019-05-21T09:46:44.253Z,1.70
2019-05-21T09:49:12.751Z,1.65
2019-05-21T09:51:41.287Z,1.90
2019-05-21T09:54:09.770Z,2.16
2019-05-21T09:56:38.242Z,4.45
2019-05-21T09:59:22.599Z,1.92
2019-05-21T10:02:01.687Z,2.50
2019-05-21T10:04:30.222Z,2.67
2019-05-21T10:06:58.743Z,2.52
2019-05-21T10:09:27.251Z,4.33
2019-05-21T10:11:55.725Z,4.45
2019-05-21T10:14:24.237Z,3.83
2019-05-21T10:16:52.768Z,8.43
2019-05-21T10:19:21.266Z,8.63
2019-05-21T10:21:49.844Z,5.33
2019-05-21T10:24:18.395Z,3.67
2019-05-21T10:26:47.004Z,7.10
2019-05-21T10:29:15.532Z,5.00
2019-05-21T10:31:44.104Z,5.45
2019-05-21T10:34:13.466Z,5.62
2019-05-21T10:36:42.077Z,5.78
2019-05-21T10:39:10.917Z,6.45
2019-05-21T10:41:39.498Z,7.42
2019-05-21T10:44:08.070Z,10.25
2019-05-21T10:46:36.693Z,3.40
2019-05-21T10:49:05.430Z,4.97
2019-05-21T10:51:33.933Z,11.65
2019-05-21T10:54:03.612Z,3.90
2019-05-21T10:56:46.724Z,4.00
2019-05-21T10:59:02.476Z,4.10
2019-05-21T11:01:49.290Z,6.95
2019-05-21T11:04:22.663Z,5.75
2019-05-21T11:06:51.301Z,5.00
2019-05-21T11:09:21.559Z,3.67
2019-05-21T11:11:50.102Z,4.70
2019-05-21T11:14:18.648Z,3.05
2019-05-21T11:16:47.187Z,3.25
2019-05-21T11:19:15.757Z,6.42
2019-05-21T11:21:44.221Z,3.08
2019-05-21T11:24:12.803Z,7.07
2019-05-21T11:26:41.302Z,4.62
2019-05-21T11:29:09.787Z,2.67
2019-05-21T11:31:38.379Z,2.45
2019-05-21T11:34:07.098Z,2.50
2019-05-21T11:36:37.213Z,2.00
2019-05-21T11:39:07.819Z,2.67
2019-05-21T11:41:36.376Z,1.80
2019-05-21T11:44:05.353Z,7.67
2019-05-21T11:46:33.995Z,2.27
2019-05-21T11:49:02.638Z,2.80
2019-05-21T11:51:31.173Z,6.50
2019-05-21T11:53:59.689Z,45.67
2019-05-21T11:56:28.244Z,13.67
2019-05-21T11:58:58.253Z,2.65
2019-05-21T12:01:26.752Z,3.08
2019-05-21T12:03:55.490Z,2.10
2019-05-21T12:06:24.121Z,2.10
2019-05-21T12:08:56.761Z,5.12
2019-05-21T12:11:22.873Z,1.62
2019-05-21T12:13:51.357Z,1.80
2019-05-21T12:16:19.859Z,1.30
2019-05-21T12:18:48.324Z,1.00
2019-05-21T12:21:16.829Z,2.20
2019-05-21T12:23:45.319Z,1.47
2019-05-21T12:26:13.856Z,1.20
2019-05-21T12:28:42.365Z,1.60
2019-05-21T12:31:10.868Z,1.57
2019-05-21T12:33:40.399Z,0.98
2019-05-21T12:36:09.027Z,1.22
2019-05-21T12:38:37.554Z,1.92
2019-05-21T12:41:06.007Z,5.87
2019-05-21T12:43:34.508Z,1.32
2019-05-21T12:46:03.089Z,0.90
2019-05-21T12:48:31.593Z,1.55
2019-05-21T12:51:00.135Z,1.10
2019-05-21T12:53:28.608Z,4.80
2019-05-21T12:55:57.095Z,1.55
2019-05-21T12:58:25.593Z,4.05
2019-05-21T13:00:54.062Z,1.75
2019-05-21T13:03:22.548Z,3.50
2019-05-21T13:05:51.186Z,1.30
2019-05-21T13:08:20.067Z,1.10
2019-05-21T13:10:48.603Z,1.00
2019-05-21T13:13:19.954Z,0.90
2019-05-21T13:15:48.413Z,1.50
2019-05-21T13:18:16.943Z,2.50
2019-05-21T13:20:45.451Z,1.10
2019-05-21T13:23:14.017Z,1.10
2019-05-21T13:25:42.570Z,1.62
2019-05-21T13:28:11.039Z,1.90
2019-05-21T13:30:39.807Z,1.40
2019-05-21T13:33:08.345Z,2.40
2019-05-21T13:35:36.944Z,1.30
2019-05-21T13:38:05.663Z,1.00
2019-05-21T13:40:34.172Z,0.88
2019-05-21T13:43:02.753Z,2.75
2019-05-21T13:45:31.248Z,1.60
2019-05-21T13:47:59.714Z,1.70
2019-05-21T13:50:28.225Z,2.90
2019-05-21T13:52:56.750Z,2.05
2019-05-21T13:55:25.327Z,1.10
2019-05-21T13:57:53.853Z,2.67
2019-05-21T14:00:28.657Z,1.87
2019-05-21T14:02:57.183Z,1.75
2019-05-21T14:05:26.270Z,1.27
2019-05-21T14:07:54.747Z,1.47
2019-05-21T14:10:23.378Z,1.82
2019-05-21T14:12:51.953Z,1.80
2019-05-21T14:15:20.487Z,1.87
2019-05-21T14:17:49.059Z,1.70
2019-05-21T14:20:17.975Z,2.02
2019-05-21T14:22:46.462Z,7.87
2019-05-21T14:25:15.054Z,4.63
2019-05-21T14:27:45.314Z,4.40
2019-05-21T14:30:14.105Z,4.37
2019-05-21T14:32:42.640Z,5.90
2019-05-21T14:35:11.252Z,3.55
2019-05-21T14:37:42.432Z,3.90
2019-05-21T14:42:39.703Z,5.50
2019-05-21T14:45:08.475Z,3.25
2019-05-21T14:47:36.983Z,8.73
2019-05-21T14:50:10.131Z,66.70
2019-05-21T14:52:38.717Z,82.75
2019-05-21T14:55:10.221Z,76.85
2019-05-21T14:57:39.631Z,182.90
2019-05-21T15:00:22.997Z,53.48
2019-05-21T15:02:51.602Z,50.58
2019-05-21T15:05:20.058Z,26.62
2019-05-21T15:07:49.795Z,6.37
2019-05-21T15:10:20.990Z,4.65
2019-05-21T15:12:49.460Z,8.30
2019-05-21T15:15:18.113Z,9.17
2019-05-21T15:17:46.712Z,3.83
2019-05-21T15:20:17.658Z,14.03
2019-05-21T15:22:46.130Z,13.50
2019-05-21T15:25:14.634Z,7.65
2019-05-21T15:27:43.182Z,19.45
2019-05-21T15:30:11.912Z,10.98
2019-05-21T15:32:40.413Z,7.60
2019-05-21T15:35:09.261Z,7.90
2019-05-21T15:37:37.734Z,8.63
2019-05-21T15:40:06.837Z,9.15
2019-05-21T15:42:35.392Z,11.00
2019-05-21T15:45:05.330Z,8.30
2019-05-21T15:47:33.862Z,3.50
2019-05-21T15:50:02.331Z,11.03
2019-05-21T15:52:30.795Z,5.25
2019-05-21T15:55:06.557Z,5.17
2019-05-21T15:57:32.222Z,5.47
2019-05-21T16:00:00.700Z,5.47
2019-05-21T16:02:30.482Z,3.67
2019-05-21T16:04:59.748Z,5.45
2019-05-21T16:07:28.222Z,4.53
2019-05-21T16:09:56.718Z,4.58
2019-05-21T16:12:25.211Z,3.52
2019-05-21T16:14:53.697Z,8.90
2019-05-21T16:17:22.167Z,7.05
2019-05-21T16:19:50.670Z,3.20
2019-05-21T16:22:19.130Z,3.27
2019-05-21T16:24:47.673Z,5.28
2019-05-21T16:27:16.150Z,6.33
2019-05-21T16:29:44.616Z,6.92
2019-05-21T16:32:13.197Z,6.80
2019-05-21T16:34:41.728Z,6.87
2019-05-21T16:37:10.303Z,8.93
2019-05-21T16:39:38.769Z,9.40
2019-05-21T16:42:07.286Z,6.15
2019-05-21T16:44:35.762Z,10.72
2019-05-21T16:47:04.971Z,15.38
2019-05-21T16:49:33.530Z,14.95
2019-05-21T16:52:02.146Z,14.70
2019-05-21T16:54:30.651Z,16.15
2019-05-21T16:56:59.125Z,8.85
2019-05-21T16:59:27.696Z,9.15
2019-05-21T17:01:56.338Z,11.28
2019-05-21T17:04:24.821Z,8.50
2019-05-21T17:06:53.375Z,11.80
2019-05-21T17:09:22.008Z,12.17
2019-05-21T17:11:59.582Z,14.18
2019-05-21T17:14:20.745Z,23.27
2019-05-21T17:16:49.218Z,14.43
2019-05-21T17:19:17.688Z,10.08
2019-05-21T17:21:46.187Z,11.80
2019-05-21T17:24:14.667Z,12.47
2019-05-21T17:26:43.223Z,9.40
2019-05-21T17:29:11.641Z,9.85
2019-05-21T17:31:40.181Z,15.50
2019-05-21T17:34:08.666Z,10.70
2019-05-21T17:36:39.447Z,11.10
2019-05-21T17:39:08.113Z,10.73
2019-05-21T17:41:36.582Z,15.88
2019-05-21T17:44:05.332Z,13.00
2019-05-21T17:46:33.842Z,11.12
2019-05-21T17:49:02.316Z,20.15
2019-05-21T17:51:30.816Z,8.80
2019-05-21T17:53:59.295Z,15.60
2019-05-21T17:56:27.805Z,8.88
2019-05-21T17:58:56.281Z,10.90
2019-05-21T18:01:24.760Z,10.82
2019-05-21T18:03:53.377Z,13.30
2019-05-21T18:06:22.023Z,10.97
2019-05-21T18:08:50.674Z,15.05
2019-05-21T18:11:19.471Z,13.28
2019-05-21T18:13:49.322Z,11.25
2019-05-21T18:16:18.606Z,17.07
2019-05-21T18:18:47.345Z,8.85
2019-05-21T18:21:16.496Z,22.77
2019-05-21T18:23:45.357Z,39.78
2019-05-21T18:26:14.003Z,16.30
2019-05-21T18:28:42.551Z,24.87
2019-05-21T18:31:11.063Z,25.60
2019-05-21T18:33:39.529Z,16.82
2019-05-21T18:36:08.102Z,17.90
2019-05-21T18:38:36.647Z,22.85
2019-05-21T18:41:05.191Z,21.40
2019-05-21T18:43:33.699Z,21.45
2019-05-21T18:46:02.174Z,18.65
2019-05-21T18:48:30.800Z,16.02
2019-05-21T18:50:59.273Z,15.98
2019-05-21T18:53:27.776Z,18.77
2019-05-21T18:55:56.253Z,19.10
2019-05-21T18:58:24.901Z,15.32
2019-05-21T19:00:53.550Z,13.58
2019-05-21T19:03:25.774Z,11.00
2019-05-21T19:05:52.331Z,13.03
2019-05-21T19:08:20.870Z,12.47
2019-05-21T19:10:49.395Z,20.55
2019-05-21T19:13:21.577Z,16.17
2019-05-21T19:15:50.196Z,16.75
2019-05-21T19:18:18.785Z,13.90
2019-05-21T19:20:49.970Z,16.97
2019-05-21T19:23:18.002Z,15.15
2019-05-21T19:25:46.555Z,17.00
2019-05-21T19:28:15.124Z,18.57
2019-05-21T19:30:43.668Z,21.40
2019-05-21T19:33:12.142Z,17.05
2019-05-21T19:35:40.914Z,14.03
2019-05-21T19:38:09.386Z,19.40
2019-05-21T19:40:37.896Z,95.47
2019-05-21T19:43:06.438Z,94.10
2019-05-21T19:45:35.005Z,50.25
2019-05-21T19:48:03.564Z,28.73
2019-05-21T19:50:32.430Z,21.87
2019-05-21T19:53:00.913Z,21.95
2019-05-21T19:55:29.698Z,24.60
2019-05-21T19:57:58.183Z,26.05
2019-05-21T20:00:28.422Z,28.98
2019-05-21T20:02:56.899Z,33.37
2019-05-21T20:05:25.988Z,28.80
2019-05-21T20:07:54.593Z,28.62
2019-05-21T20:10:23.435Z,21.68
2019-05-21T20:12:52.270Z,21.17
2019-05-21T20:15:20.774Z,19.25
2019-05-21T20:18:06.176Z,23.42
2019-05-21T20:20:23.700Z,32.67
2019-05-21T20:22:52.274Z,31.87
2019-05-21T20:25:22.584Z,29.57
2019-05-21T20:27:52.098Z,33.50
2019-05-21T20:30:22.360Z,25.75
2019-05-21T20:32:51.896Z,30.30
2019-05-21T20:35:22.243Z,29.75
2019-05-21T20:37:52.244Z,29.32
2019-05-21T20:40:22.118Z,37.87
2019-05-21T20:42:51.365Z,35.55
2019-05-21T20:45:21.610Z,40.67
2019-05-21T20:47:52.298Z,33.27
2019-05-21T20:50:22.178Z,33.50
2019-05-21T20:52:51.102Z,35.58
2019-05-21T20:55:22.663Z,37.75
2019-05-21T21:00:23.847Z,36.73
2019-05-21T21:02:53.056Z,43.90
2019-05-21T21:05:21.891Z,46.88
2019-05-21T21:07:51.245Z,48.38
2019-05-21T21:10:20.034Z,43.15
2019-05-21T21:12:48.664Z,40.15
2019-05-21T21:15:17.751Z,36.07
2019-05-21T21:17:46.408Z,39.20
2019-05-21T21:20:14.943Z,37.53
2019-05-21T21:22:43.528Z,35.35
2019-05-21T21:25:12.615Z,36.57
2019-05-21T21:27:41.939Z,31.60
2019-05-21T21:30:10.752Z,34.85
2019-05-21T21:32:39.968Z,31.55
2019-05-21T21:35:10.893Z,33.63
2019-05-21T21:37:39.608Z,38.77
2019-05-21T21:40:09.990Z,34.98
2019-05-21T21:42:39.302Z,31.82
2019-05-21T21:45:08.267Z,33.02
2019-05-21T21:47:37.430Z,30.77
2019-05-21T21:50:08.429Z,32.70
2019-05-21T21:55:09.021Z,33.25
2019-05-21T21:57:38.674Z,25.43
2019-05-21T22:00:19.202Z,31.27
2019-05-21T22:02:47.748Z,32.83
2019-05-21T22:05:16.417Z,29.20
2019-05-21T22:07:45.425Z,27.00
2019-05-21T22:10:14.184Z,26.57
2019-05-21T22:12:43.646Z,29.65
2019-05-21T22:15:12.504Z,29.70
2019-05-21T22:17:41.040Z,34.87
2019-05-21T22:20:10.473Z,35.26
2019-05-21T22:22:39.032Z,31.13
2019-05-21T22:25:08.678Z,26.44
2019-05-21T22:27:37.237Z,25.68
2019-05-21T22:30:07.330Z,27.62
2019-05-21T22:32:35.782Z,23.73
2019-05-21T22:35:05.737Z,24.85
2019-05-21T22:37:34.685Z,26.82
2019-05-21T22:40:03.969Z,24.05
2019-05-21T22:42:32.824Z,24.82
2019-05-21T22:45:08.196Z,23.62
2019-05-21T22:47:31.907Z,22.32
2019-05-21T22:50:00.426Z,24.87
2019-05-21T22:52:28.902Z,21.35
2019-05-21T22:54:57.366Z,20.52
2019-05-21T22:57:26.412Z,20.88
2019-05-21T22:59:54.974Z,20.68
2019-05-21T23:02:25.086Z,20.20
2019-05-21T23:04:53.631Z,22.25
2019-05-21T23:07:22.214Z,22.43
2019-05-21T23:09:50.691Z,20.72
2019-05-21T23:12:19.569Z,20.65
2019-05-21T23:14:48.845Z,21.57
2019-05-21T23:17:17.317Z,21.68
2019-05-21T23:19:45.991Z,24.27
2019-05-21T23:22:18.521Z,24.07
2019-05-21T23:24:48.292Z,24.52
2019-05-21T23:27:17.610Z,26.85
2019-05-21T23:29:46.254Z,26.35
2019-05-21T23:32:15.297Z,25.40
2019-05-21T23:34:45.054Z,31.82
2019-05-21T23:37:16.830Z,27.58
2019-05-21T23:39:46.538Z,27.27
2019-05-21T23:42:28.572Z,27.07
2019-05-21T23:44:45.419Z,27.27
2019-05-21T23:47:15.645Z,27.85
2019-05-21T23:49:44.266Z,26.00
2019-05-21T23:52:13.085Z,27.42
2019-05-21T23:54:41.550Z,26.90
2019-05-21T23:57:13.021Z,26.63
2019-05-21T23:59:42.303Z,25.85
